Time;durP1;ratioP1;P1;durP2;ratioP2;P2;SDS_P1;SDS_P2;PMS_P1;PMS_P2;Temp;Humidity;BMP_temperature;BMP_pressure;BME280_temperature;BME280_humidity;BME280_pressure;Samples;Min_cycle;Max_cycle;Signal;HPM_P1;HPM_P2
2022/10/02 00:01:32;;;;;;;;;;;11.70;99.90;;;;;;5004901;28;20057;-82
2022/10/02 00:03:59;;;;;;;;;;;11.70;99.90;;;;;;4999383;28;20020;-85
2022/10/02 00:06:27;;;;;;;;;;;11.70;99.90;;;;;;4997837;28;19925;-86
2022/10/02 00:08:56;;;;;;;;;;;11.70;99.90;;;;;;5013570;28;19925;-83
2022/10/02 00:11:23;;;;;;;;;;;11.70;99.90;;;;;;4994720;28;20328;-86
2022/10/02 00:13:52;;;;;;;;;;;11.70;99.90;;;;;;5002387;28;19933;-87
2022/10/02 00:16:23;;;;;;;;;;;11.60;99.90;;;;;;4997020;28;20026;-89
2022/10/02 00:18:49;;;;;;;;;;;11.70;99.90;;;;;;4996491;28;20407;-87
2022/10/02 00:21:33;;;;;;;;;;;11.60;99.90;;;;;;4994496;28;20365;-85
2022/10/02 00:24:02;;;;;;;;;;;11.60;99.90;;;;;;5007942;28;19935;-84
2022/10/02 00:26:31;;;;;;;;;;;11.50;99.90;;;;;;5011250;28;19951;-80
2022/10/02 00:29:12;;;;;;;;;;;11.50;99.90;;;;;;5008036;28;19935;-84
2022/10/02 00:31:54;;;;;;;;;;;11.50;99.90;;;;;;4993463;28;19932;-81
2022/10/02 00:34:54;;;;;;;;;;;11.50;99.90;;;;;;5013843;28;19975;-83
2022/10/02 00:37:27;;;;;;;;;;;11.50;99.90;;;;;;4970507;28;19925;-83
2022/10/02 00:40:21;;;;;;;;;;;11.50;99.90;;;;;;5010431;28;19929;-79
2022/10/02 00:42:47;;;;;;;;;;;11.50;99.90;;;;;;5005739;28;19972;-81
2022/10/02 00:45:28;;;;;;;;;;;11.50;99.90;;;;;;5012912;28;20503;-87
2022/10/02 00:48:03;;;;;;;;;;;11.50;99.90;;;;;;5003940;28;19932;-84
2022/10/02 00:50:39;;;;;;;;;;;11.40;99.90;;;;;;4990312;28;19933;-82
2022/10/02 00:53:24;;;;;;;;;;;11.40;99.90;;;;;;5009840;28;19925;-85
2022/10/02 00:55:50;;;;;;;;;;;11.60;99.90;;;;;;5006171;28;20008;-85
2022/10/02 00:58:28;;;;;;;;;;;11.40;99.90;;;;;;4992229;28;20031;-85
2022/10/02 01:01:08;;;;;;;;;;;11.40;99.90;;;;;;5011403;28;19932;-81
2022/10/02 01:03:38;;;;;;;;;;;11.40;99.90;;;;;;5009075;28;19947;-83
2022/10/02 01:06:05;;;;;;;;;;;11.30;99.90;;;;;;4996638;28;19925;-86
2022/10/02 01:08:31;;;;;;;;;;;11.30;99.90;;;;;;5011159;28;20253;-86
2022/10/02 01:10:57;;;;;;;;;;;11.30;99.90;;;;;;5009208;28;20732;-83
2022/10/02 01:13:23;;;;;;;;;;;11.30;99.90;;;;;;4992679;28;19986;-82
2022/10/02 01:15:53;;;;;;;;;;;11.30;99.90;;;;;;4995960;28;19941;-83
2022/10/02 01:18:19;;;;;;;;;;;11.30;99.90;;;;;;5008640;28;20596;-85
2022/10/02 01:20:47;;;;;;;;;;;11.20;99.90;;;;;;4992386;28;19933;-82
2022/10/02 01:23:12;;;;;;;;;;;11.20;99.90;;;;;;5008845;28;19932;-81
2022/10/02 01:25:38;;;;;;;;;;;11.20;99.90;;;;;;5009637;28;19933;-81
2022/10/02 01:28:04;;;;;;;;;;;11.20;99.90;;;;;;5003404;28;19925;-83
2022/10/02 01:30:30;;;;;;;;;;;11.10;99.90;;;;;;4993655;28;19931;-84
2022/10/02 01:32:58;;;;;;;;;;;11.10;99.90;;;;;;5004648;28;19925;-84
2022/10/02 01:35:26;;;;;;;;;;;11.20;99.90;;;;;;5007917;28;20467;-80
2022/10/02 01:37:53;;;;;;;;;;;11.10;99.90;;;;;;5003354;28;19925;-81
2022/10/02 01:40:25;;;;;;;;;;;11.10;99.90;;;;;;5007125;28;19936;-81
2022/10/02 01:42:51;;;;;;;;;;;11.10;99.90;;;;;;4990250;28;20002;-85
2022/10/02 01:45:19;;;;;;;;;;;11.20;99.90;;;;;;5007773;28;19964;-81
2022/10/02 01:47:52;;;;;;;;;;;11.20;99.90;;;;;;5008952;28;20007;-83
2022/10/02 01:50:34;;;;;;;;;;;11.20;99.90;;;;;;5024842;28;19935;-83
2022/10/02 01:53:15;;;;;;;;;;;11.20;99.90;;;;;;5010808;28;20280;-83
2022/10/02 01:56:00;;;;;;;;;;;11.10;99.90;;;;;;5000985;28;19983;-84
2022/10/02 01:58:39;;;;;;;;;;;11.10;99.90;;;;;;5006343;28;19929;-84
2022/10/02 02:01:20;;;;;;;;;;;11.20;99.90;;;;;;5007647;28;19944;-80
2022/10/02 02:04:05;;;;;;;;;;;11.20;99.90;;;;;;5007155;28;19925;-83
2022/10/02 02:09:11;;;;;;;;;;;11.20;99.90;;;;;;5026693;22;19928;-82
2022/10/02 02:11:44;;;;;;;;;;;11.20;99.90;;;;;;5018002;28;20630;-80
2022/10/02 02:14:09;;;;;;;;;;;11.20;99.90;;;;;;5006284;28;19928;-82
2022/10/02 02:16:43;;;;;;;;;;;11.20;99.90;;;;;;5016126;28;19929;-83
2022/10/02 02:19:15;;;;;;;;;;;11.20;99.90;;;;;;5022386;28;19928;-84
2022/10/02 02:21:43;;;;;;;;;;;11.20;99.90;;;;;;5014103;28;19951;-85
2022/10/02 02:24:32;;;;;;;;;;;11.20;99.90;;;;;;5024051;28;20404;-83
2022/10/02 02:26:59;;;;;;;;;;;11.20;99.90;;;;;;4998813;28;20074;-84
2022/10/02 02:29:27;;;;;;;;;;;11.20;99.90;;;;;;5009936;28;19921;-83
2022/10/02 02:31:56;;;;;;;;;;;11.20;99.90;;;;;;5026954;28;19931;-85
2022/10/02 02:34:26;;;;;;;;;;;11.20;99.90;;;;;;5022160;28;20306;-80
2022/10/02 02:36:54;;;;;;;;;;;11.20;99.90;;;;;;5010044;28;20127;-86
2022/10/02 02:39:25;;;;;;;;;;;11.10;99.90;;;;;;5011417;28;20464;-84
2022/10/02 02:41:57;;;;;;;;;;;11.20;99.90;;;;;;5026161;28;20591;-85
2022/10/02 02:44:37;;;;;;;;;;;11.20;99.90;;;;;;5026472;28;20463;-84
2022/10/02 02:47:14;;;;;;;;;;;11.20;99.90;;;;;;5025818;28;19929;-83
2022/10/02 02:49:56;;;;;;;;;;;11.20;99.90;;;;;;5024473;28;19929;-81
2022/10/02 02:52:28;;;;;;;;;;;11.20;99.90;;;;;;5025986;28;19924;-81
2022/10/02 02:55:08;;;;;;;;;;;11.20;99.90;;;;;;5025131;28;19924;-84
2022/10/02 02:57:38;;;;;;;;;;;12.00;99.90;;;;;;5005197;28;20389;-81
2022/10/02 03:00:05;;;;;;;;;;;11.30;99.90;;;;;;5013644;28;19933;-80
2022/10/02 03:02:31;;;;;;;;;;;11.30;99.90;;;;;;5022692;28;19956;-81
2022/10/02 03:04:57;;;;;;;;;;;11.30;99.90;;;;;;5009261;28;20580;-80
2022/10/02 03:07:23;;;;;;;;;;;11.30;99.90;;;;;;5027690;28;20016;-80
2022/10/02 03:10:21;;;;;;;;;;;11.30;99.90;;;;;;5028509;28;19968;-81
2022/10/02 03:13:03;;;;;;;;;;;11.30;99.90;;;;;;4987621;28;20372;-84
2022/10/02 03:15:34;;;;;;;;;;;11.40;99.90;;;;;;5020107;28;19929;-82
2022/10/02 03:18:00;;;;;;;;;;;;;;;;;;5000085;28;19960;-82
2022/10/02 03:20:40;;;;;;;;;;;11.40;99.90;;;;;;5027917;28;19929;-81
2022/10/02 03:23:06;;;;;;;;;;;11.40;99.90;;;;;;5012919;28;19929;-82
2022/10/02 03:26:01;;;;;;;;;;;11.40;99.90;;;;;;5028055;28;19935;-81
2022/10/02 03:28:37;;;;;;;;;;;11.40;99.90;;;;;;5029876;28;19929;-83
2022/10/02 03:31:04;;;;;;;;;;;11.40;99.90;;;;;;5027653;28;19994;-80
2022/10/02 03:33:30;;;;;;;;;;;11.40;99.90;;;;;;5046490;28;19931;-81
2022/10/02 03:35:56;;;;;;;;;;;11.50;99.90;;;;;;5027326;28;19975;-83
2022/10/02 03:38:23;;;;;;;;;;;11.40;99.90;;;;;;5043109;28;19932;-81
2022/10/02 03:40:51;;;;;;;;;;;11.40;99.90;;;;;;5028204;28;19929;-79
2022/10/02 03:43:20;;;;;;;;;;;11.40;99.90;;;;;;5027478;28;19925;-81
2022/10/02 03:45:46;;;;;;;;;;;11.40;99.90;;;;;;5041855;28;20344;-81
2022/10/02 03:48:12;;;;;;;;;;;11.40;99.90;;;;;;5027735;28;19964;-81
2022/10/02 03:50:37;;;;;;;;;;;11.50;99.90;;;;;;5012117;28;19928;-81
2022/10/02 03:53:18;;;;;;;;;;;11.50;99.90;;;;;;5046445;28;19931;-82
2022/10/02 03:55:49;;;;;;;;;;;11.60;99.90;;;;;;5027915;28;19999;-79
2022/10/02 03:58:15;;;;;;;;;;;11.60;99.90;;;;;;5042090;28;20137;-81
2022/10/02 04:00:51;;;;;;;;;;;11.50;99.90;;;;;;5011698;28;19982;-82
2022/10/02 04:03:19;;;;;;;;;;;11.50;99.90;;;;;;5000519;28;20341;-80
2022/10/02 04:05:48;;;;;;;;;;;11.60;99.90;;;;;;5023654;28;19925;-78
2022/10/02 04:08:16;;;;;;;;;;;11.60;99.90;;;;;;5027113;28;19925;-79
2022/10/02 04:10:51;;;;;;;;;;;11.60;99.90;;;;;;5027828;28;19960;-80
2022/10/02 04:13:23;;;;;;;;;;;11.60;99.90;;;;;;5046409;28;19955;-81
2022/10/02 04:15:49;;;;;;;;;;;11.60;99.90;;;;;;5003534;28;19929;-80
2022/10/02 04:18:21;;;;;;;;;;;11.60;99.90;;;;;;5027685;28;19928;-78
2022/10/02 04:20:52;;;;;;;;;;;11.60;99.90;;;;;;5044285;28;20472;-79
2022/10/02 04:23:18;;;;;;;;;;;11.60;99.90;;;;;;5021186;28;20359;-81
2022/10/02 04:25:46;;;;;;;;;;;11.70;99.90;;;;;;5015041;28;19931;-81
2022/10/02 04:28:13;;;;;;;;;;;11.60;99.90;;;;;;5019704;28;20319;-83
2022/10/02 04:30:39;;;;;;;;;;;11.60;99.90;;;;;;5024659;28;19933;-79
2022/10/02 04:33:17;;;;;;;;;;;11.60;99.90;;;;;;5019507;28;19929;-80
2022/10/02 04:35:49;;;;;;;;;;;11.60;99.90;;;;;;5043703;28;20129;-78
2022/10/02 04:38:25;;;;;;;;;;;11.60;99.90;;;;;;5045393;28;19929;-81
2022/10/02 04:40:57;;;;;;;;;;;11.60;99.90;;;;;;5043165;28;20050;-81
2022/10/02 04:43:22;;;;;;;;;;;11.60;99.90;;;;;;5043904;28;19932;-82
2022/10/02 04:46:08;;;;;;;;;;;11.70;99.90;;;;;;5045716;28;19924;-80
2022/10/02 04:48:53;;;;;;;;;;;11.60;99.90;;;;;;5008227;28;19929;-81
2022/10/02 04:51:19;;;;;;;;;;;11.60;99.90;;;;;;5040984;28;19999;-81
2022/10/02 04:53:45;;;;;;;;;;;11.60;99.90;;;;;;5045057;28;20447;-82
2022/10/02 04:56:29;;;;;;;;;;;11.60;99.90;;;;;;5043127;28;20443;-80
2022/10/02 04:58:55;;;;;;;;;;;11.60;99.90;;;;;;5025352;28;19956;-81
2022/10/02 05:01:20;;;;;;;;;;;11.60;99.90;;;;;;5027290;28;20433;-81
2022/10/02 05:03:49;;;;;;;;;;;11.60;99.90;;;;;;5024261;28;20379;-82
2022/10/02 05:06:41;;;;;;;;;;;11.60;99.90;;;;;;5030974;28;20503;-79
2022/10/02 05:09:15;;;;;;;;;;;11.60;99.90;;;;;;5040078;28;19925;-83
2022/10/02 05:12:02;;;;;;;;;;;11.60;99.90;;;;;;5025117;28;19932;-82
2022/10/02 05:14:31;;;;;;;;;;;11.60;99.90;;;;;;5043426;28;19935;-82
2022/10/02 05:16:57;;;;;;;;;;;11.60;99.90;;;;;;5011163;28;19921;-82
2022/10/02 05:19:41;;;;;;;;;;;11.50;99.90;;;;;;5045017;28;19935;-83
2022/10/02 05:22:25;;;;;;;;;;;11.50;99.90;;;;;;5022924;28;19921;-84
2022/10/02 05:24:57;;;;;;;;;;;11.50;99.90;;;;;;5041584;28;19977;-83
2022/10/02 05:27:38;;;;;;;;;;;11.50;99.90;;;;;;5027154;28;19928;-84
2022/10/02 05:30:10;;;;;;;;;;;11.50;99.90;;;;;;5010333;28;20018;-84
2022/10/02 05:32:56;;;;;;;;;;;11.50;99.90;;;;;;5045115;28;19936;-81
2022/10/02 05:35:21;;;;;;;;;;;11.40;99.90;;;;;;5026956;28;19932;-83
2022/10/02 05:37:53;;;;;;;;;;;11.40;99.90;;;;;;5025427;28;20613;-83
2022/10/02 05:40:25;;;;;;;;;;;11.40;99.90;;;;;;5010114;28;19932;-82
2022/10/02 05:43:10;;;;;;;;;;;11.30;99.90;;;;;;5020873;28;19925;-83
2022/10/02 05:45:38;;;;;;;;;;;11.30;99.90;;;;;;5019056;28;19928;-84
2022/10/02 05:48:07;;;;;;;;;;;11.30;99.90;;;;;;5027233;28;20020;-82
2022/10/02 05:50:34;;;;;;;;;;;11.20;99.90;;;;;;5024937;28;20087;-85
2022/10/02 05:53:02;;;;;;;;;;;11.30;99.90;;;;;;5025785;28;19925;-81
2022/10/02 05:55:32;;;;;;;;;;;11.20;99.90;;;;;;5023727;28;19928;-85
2022/10/02 05:58:04;;;;;;;;;;;11.20;99.90;;;;;;5026368;28;19929;-82
2022/10/02 06:00:33;;;;;;;;;;;11.20;99.90;;;;;;5010318;28;19944;-81
2022/10/02 06:03:34;;;;;;;;;;;11.20;99.90;;;;;;5026929;28;19925;-88
2022/10/02 06:06:26;;;;;;;;;;;11.30;99.90;;;;;;4985300;28;19926;-84
2022/10/02 06:08:57;;;;;;;;;;;11.30;99.90;;;;;;5006401;28;19929;-87
2022/10/02 06:11:26;;;;;;;;;;;11.30;99.90;;;;;;5022484;28;19928;-86
2022/10/02 06:13:53;;;;;;;;;;;11.30;99.90;;;;;;5023384;28;19968;-86
2022/10/02 06:16:23;;;;;;;;;;;11.30;99.90;;;;;;5028900;28;20583;-84
2022/10/02 06:18:52;;;;;;;;;;;11.30;99.90;;;;;;5006839;28;20020;-88
2022/10/02 06:21:18;;;;;;;;;;;11.40;99.90;;;;;;5027736;28;20016;-80
2022/10/02 06:23:49;;;;;;;;;;;11.40;99.90;;;;;;5022933;28;20011;-81
2022/10/02 06:26:21;;;;;;;;;;;11.40;99.90;;;;;;5016605;28;19929;-80
2022/10/02 06:28:50;;;;;;;;;;;11.50;99.90;;;;;;5025138;28;19978;-88
2022/10/02 06:31:38;;;;;;;;;;;11.40;99.90;;;;;;5022739;28;20390;-83
2022/10/02 06:34:09;;;;;;;;;;;11.50;99.90;;;;;;5027045;28;19924;-81
2022/10/02 06:36:35;;;;;;;;;;;11.60;99.90;;;;;;5019173;28;19935;-80
2022/10/02 06:39:19;;;;;;;;;;;11.60;99.90;;;;;;5047304;28;20137;-85
2022/10/02 06:41:57;;;;;;;;;;;11.70;99.90;;;;;;5034090;28;19933;-86
2022/10/02 06:44:23;;;;;;;;;;;11.70;99.90;;;;;;5021280;28;19987;-81
2022/10/02 06:46:58;;;;;;;;;;;11.70;99.90;;;;;;5039615;28;19925;-81
2022/10/02 06:49:43;;;;;;;;;;;11.90;99.90;;;;;;5001611;28;19967;-81
2022/10/02 06:52:23;;;;;;;;;;;12.00;99.90;;;;;;5014477;28;19936;-82
2022/10/02 06:54:55;;;;;;;;;;;12.00;99.90;;;;;;5022603;28;19921;-82
2022/10/02 06:57:29;;;;;;;;;;;12.20;99.90;;;;;;5036730;28;19936;-82
2022/10/02 06:59:56;;;;;;;;;;;;;;;;;;5023868;28;19932;-81
2022/10/02 07:02:22;;;;;;;;;;;;;;;;;;5026085;28;19974;-82
2022/10/02 07:04:49;;;;;;;;;;;;;;;;;;5046043;28;19967;-82
2022/10/02 07:07:24;;;;;;;;;;;12.40;99.90;;;;;;5028826;28;19951;-82
2022/10/02 07:10:10;;;;;;;;;;;12.30;99.90;;;;;;5027739;28;20027;-81
2022/10/02 07:12:39;;;;;;;;;;;12.40;99.90;;;;;;5030111;28;19929;-81
2022/10/02 07:15:05;;;;;;;;;;;12.30;99.90;;;;;;5017957;28;20373;-82
2022/10/02 07:17:39;;;;;;;;;;;12.30;99.90;;;;;;5027722;28;19921;-84
2022/10/02 07:20:17;;;;;;;;;;;12.30;99.90;;;;;;5012733;28;20469;-84
2022/10/02 07:22:54;;;;;;;;;;;12.30;99.90;;;;;;5030180;28;20338;-83
2022/10/02 07:25:25;;;;;;;;;;;12.30;99.90;;;;;;5027797;28;20079;-84
2022/10/02 07:27:58;;;;;;;;;;;12.30;99.90;;;;;;5031178;28;19924;-83
2022/10/02 07:30:24;;;;;;;;;;;12.30;99.90;;;;;;5016467;28;20008;-81
2022/10/02 07:32:49;;;;;;;;;;;12.30;99.90;;;;;;5016649;28;19939;-82
2022/10/02 07:35:21;;;;;;;;;;;12.30;99.90;;;;;;5003060;28;19928;-82
2022/10/02 07:38:06;;;;;;;;;;;12.30;99.90;;;;;;5016961;28;19925;-82
2022/10/02 07:40:50;;;;;;;;;;;12.40;99.90;;;;;;4997080;28;20012;-82
2022/10/02 07:43:32;;;;;;;;;;;12.40;99.90;;;;;;5017916;28;20641;-82
2022/10/02 07:46:15;;;;;;;;;;;12.40;99.90;;;;;;5013060;28;19925;-81
2022/10/02 07:48:53;;;;;;;;;;;12.50;99.90;;;;;;5024807;28;19933;-83
2022/10/02 07:51:47;;;;;;;;;;;12.50;99.90;;;;;;5033520;28;19933;-83
2022/10/02 07:54:22;;;;;;;;;;;12.60;99.90;;;;;;5021461;28;19929;-82
2022/10/02 07:56:49;;;;;;;;;;;12.70;99.90;;;;;;5009990;28;19929;-82
2022/10/02 07:59:16;;;;;;;;;;;12.80;99.90;;;;;;5012139;28;20138;-82
2022/10/02 08:01:43;;;;;;;;;;;12.80;99.90;;;;;;5004683;28;19924;-81
2022/10/02 08:04:11;;;;;;;;;;;12.90;99.90;;;;;;5004273;28;20271;-82
2022/10/02 08:06:36;;;;;;;;;;;13.00;99.90;;;;;;5014226;28;19925;-81
2022/10/02 08:09:05;;;;;;;;;;;13.00;99.90;;;;;;5013083;28;19925;-82
2022/10/02 08:11:33;;;;;;;;;;;13.20;99.90;;;;;;4998166;28;19933;-81
2022/10/02 08:14:06;;;;;;;;;;;13.20;99.90;;;;;;5014417;28;19929;-82
2022/10/02 08:16:48;;;;;;;;;;;13.40;99.90;;;;;;5029897;28;19925;-81
2022/10/02 08:19:16;;;;;;;;;;;13.60;99.90;;;;;;5014840;28;19928;-80
2022/10/02 08:21:47;;;;;;;;;;;13.90;99.90;;;;;;5019388;28;19928;-82
2022/10/02 08:24:15;;;;;;;;;;;14.00;99.90;;;;;;5021895;28;19929;-80
2022/10/02 08:26:45;;;;;;;;;;;14.20;99.90;;;;;;5010009;28;20649;-81
2022/10/02 08:29:16;;;;;;;;;;;14.20;99.90;;;;;;5019102;28;19928;-82
2022/10/02 08:31:42;;;;;;;;;;;14.10;99.90;;;;;;5014990;28;19936;-80
2022/10/02 08:34:16;;;;;;;;;;;14.00;99.90;;;;;;5017479;28;19955;-81
2022/10/02 08:36:58;;;;;;;;;;;14.00;99.90;;;;;;5018557;28;19925;-80
2022/10/02 08:39:24;;;;;;;;;;;14.00;99.90;;;;;;5018332;28;19935;-81
2022/10/02 08:42:09;;;;;;;;;;;13.90;99.90;;;;;;5024054;28;19929;-80
2022/10/02 08:44:44;;;;;;;;;;;13.90;99.90;;;;;;5015934;28;19928;-81
2022/10/02 08:47:19;;;;;;;;;;;13.90;99.90;;;;;;5018679;28;19932;-80
2022/10/02 08:50:03;;;;;;;;;;;13.90;99.90;;;;;;5004755;28;19987;-80
2022/10/02 08:52:49;;;;;;;;;;;14.00;99.90;;;;;;5014260;28;19929;-82
2022/10/02 08:55:15;;;;;;;;;;;14.20;99.90;;;;;;5011714;28;20475;-81
2022/10/02 08:57:51;;;;;;;;;;;14.10;99.90;;;;;;5016979;28;20058;-84
2022/10/02 09:00:16;;;;;;;;;;;14.10;99.90;;;;;;5005690;28;19931;-83
2022/10/02 09:03:01;;;;;;;;;;;13.90;99.90;;;;;;5035470;28;19929;-83
2022/10/02 09:05:46;;;;;;;;;;;13.80;99.90;;;;;;5022801;28;19979;-86
2022/10/02 09:08:32;;;;;;;;;;;13.70;99.90;;;;;;5015552;28;21968;-83
2022/10/02 09:11:04;;;;;;;;;;;13.60;99.90;;;;;;5020956;28;19929;-84
2022/10/02 09:13:53;;;;;;;;;;;13.50;99.90;;;;;;5021992;28;19932;-84
2022/10/02 09:16:38;;;;;;;;;;;13.50;99.90;;;;;;5008354;28;19925;-82
2022/10/02 09:19:10;;;;;;;;;;;13.50;99.90;;;;;;4999872;28;20538;-82
2022/10/02 09:21:35;;;;;;;;;;;13.50;99.90;;;;;;5003794;28;19928;-82
2022/10/02 09:24:04;;;;;;;;;;;13.60;99.90;;;;;;5013623;28;20010;-82
2022/10/02 09:26:35;;;;;;;;;;;13.60;99.90;;;;;;4997764;28;20376;-83
2022/10/02 09:29:00;;;;;;;;;;;13.60;99.90;;;;;;5013750;28;19932;-83
2022/10/02 09:31:26;;;;;;;;;;;13.60;99.90;;;;;;5013500;28;19925;-82
2022/10/02 09:34:01;;;;;;;;;;;13.60;99.90;;;;;;5025396;28;19925;-83
2022/10/02 09:36:33;;;;;;;;;;;13.80;99.90;;;;;;5011311;28;20415;-84
2022/10/02 09:39:00;;;;;;;;;;;;;;;;;;5022246;28;19924;-87
2022/10/02 09:41:41;;;;;;;;;;;14.10;99.90;;;;;;5020220;28;19929;-83
2022/10/02 09:44:07;;;;;;;;;;;14.30;99.90;;;;;;5009212;28;19944;-82
2022/10/02 09:46:51;;;;;;;;;;;14.50;99.90;;;;;;5025367;28;19937;-84
2022/10/02 09:49:17;;;;;;;;;;;14.70;99.90;;;;;;5022301;28;19925;-84
2022/10/02 09:52:01;;;;;;;;;;;14.90;99.90;;;;;;5007479;28;19955;-86
2022/10/02 09:54:46;;;;;;;;;;;15.00;99.90;;;;;;5016821;28;19926;-84
2022/10/02 09:57:27;;;;;;;;;;;15.20;99.90;;;;;;5004315;28;20419;-82
2022/10/02 09:59:53;;;;;;;;;;;;;;;;;;5016739;28;20348;-81
2022/10/02 10:02:37;;;;;;;;;;;15.30;99.90;;;;;;5034278;28;19975;-85
2022/10/02 10:05:22;;;;;;;;;;;15.50;99.90;;;;;;5013670;28;19932;-84
2022/10/02 10:07:54;;;;;;;;;;;15.60;99.90;;;;;;5012963;28;19925;-84
2022/10/02 10:10:38;;;;;;;;;;;15.70;99.90;;;;;;5014620;28;20026;-83
2022/10/02 10:13:06;;;;;;;;;;;15.70;99.90;;;;;;4999614;28;20235;-80
2022/10/02 10:16:00;;;;;;;;;;;15.60;99.90;;;;;;5013641;28;20062;-84
2022/10/02 10:18:29;;;;;;;;;;;15.50;99.90;;;;;;5000472;28;19940;-80
2022/10/02 10:21:13;;;;;;;;;;;15.40;99.90;;;;;;5003555;28;19933;-83
2022/10/02 10:23:55;;;;;;;;;;;15.40;99.90;;;;;;5016764;28;19987;-79
2022/10/02 10:26:42;;;;;;;;;;;15.60;99.90;;;;;;5014376;28;19983;-83
2022/10/02 10:29:26;;;;;;;;;;;15.80;99.90;;;;;;5017941;28;19954;-83
2022/10/02 10:32:10;;;;;;;;;;;15.90;99.90;;;;;;5016720;28;19929;-81
2022/10/02 10:34:44;;;;;;;;;;;16.00;99.90;;;;;;5012017;28;20024;-84
2022/10/02 10:40:14;;;;;;;;;;;15.90;99.90;;;;;;5016067;28;19932;-81
2022/10/02 10:42:55;;;;;;;;;;;16.00;99.90;;;;;;4994825;28;20020;-83
2022/10/02 10:45:28;;;;;;;;;;;15.90;99.90;;;;;;5015464;28;19924;-80
2022/10/02 10:48:08;;;;;;;;;;;15.70;99.90;;;;;;5003141;28;19924;-87
2022/10/02 10:50:40;;;;;;;;;;;15.70;99.90;;;;;;5015216;28;19929;-83
2022/10/02 10:53:18;;;;;;;;;;;15.80;99.90;;;;;;5006620;28;19944;-81
2022/10/02 10:56:08;;;;;;;;;;;15.90;99.90;;;;;;5022801;28;19920;-81
2022/10/02 10:58:49;;;;;;;;;;;15.90;99.90;;;;;;5018663;28;19929;-84
2022/10/02 11:01:19;;;;;;;;;;;16.00;99.90;;;;;;5006831;28;20655;-81
2022/10/02 11:03:57;;;;;;;;;;;16.10;99.90;;;;;;5015928;28;20507;-81
2022/10/02 11:06:32;;;;;;;;;;;16.20;99.90;;;;;;5013331;28;19937;-83
2022/10/02 11:09:25;;;;;;;;;;;16.30;99.90;;;;;;5019053;28;20023;-84
2022/10/02 11:12:00;;;;;;;;;;;16.30;99.90;;;;;;5023623;28;19937;-85
2022/10/02 11:14:45;;;;;;;;;;;16.20;99.90;;;;;;5016741;28;20725;-83
2022/10/02 11:17:20;;;;;;;;;;;16.10;99.90;;;;;;5016414;28;19925;-82
2022/10/02 11:19:56;;;;;;;;;;;16.00;99.90;;;;;;5021392;28;19936;-81
2022/10/02 11:22:30;;;;;;;;;;;15.90;99.90;;;;;;5036217;28;19979;-81
2022/10/02 11:25:14;;;;;;;;;;;15.80;99.90;;;;;;5016670;28;20106;-80
2022/10/02 11:27:40;;;;;;;;;;;15.90;99.90;;;;;;5019016;28;19925;-86
2022/10/02 11:30:19;;;;;;;;;;;15.80;99.90;;;;;;5002508;28;19929;-84
2022/10/02 11:33:04;;;;;;;;;;;15.90;99.90;;;;;;5022398;28;19928;-81
2022/10/02 11:35:33;;;;;;;;;;;15.90;99.90;;;;;;5042140;28;19951;-81
2022/10/02 11:38:18;;;;;;;;;;;15.90;99.90;;;;;;5004684;28;19931;-80
2022/10/02 11:41:04;;;;;;;;;;;15.90;99.90;;;;;;5035461;28;19925;-83
2022/10/02 11:43:41;;;;;;;;;;;16.10;99.90;;;;;;5018267;28;19936;-80
2022/10/02 11:46:26;;;;;;;;;;;16.10;99.90;;;;;;5022501;28;20011;-80
2022/10/02 11:49:11;;;;;;;;;;;16.30;99.90;;;;;;4997118;28;20020;-82
2022/10/02 11:51:58;;;;;;;;;;;16.30;99.90;;;;;;5037312;28;19964;-80
2022/10/02 11:54:32;;;;;;;;;;;16.40;99.90;;;;;;5014998;28;19929;-80
2022/10/02 11:57:19;;;;;;;;;;;16.40;99.90;;;;;;5020357;28;19974;-81
2022/10/02 12:00:04;;;;;;;;;;;16.50;99.90;;;;;;5038699;28;19929;-85
2022/10/02 12:03:06;;;;;;;;;;;16.50;99.90;;;;;;5025533;28;19929;-84
2022/10/02 12:05:43;;;;;;;;;;;16.50;99.90;;;;;;4964209;28;20017;-84
2022/10/02 12:08:23;;;;;;;;;;;16.60;99.90;;;;;;5013394;28;19925;-82
2022/10/02 12:10:48;;;;;;;;;;;16.30;99.90;;;;;;5019967;28;20330;-83
2022/10/02 12:13:50;;;;;;;;;;;16.30;99.90;;;;;;5036700;28;19929;-82
2022/10/02 12:16:21;;;;;;;;;;;16.40;99.90;;;;;;4982888;28;19940;-81
2022/10/02 12:18:53;;;;;;;;;;;16.40;99.90;;;;;;5034913;28;19928;-81
2022/10/02 12:27:09;;;;;;;;;;;16.60;99.90;;;;;;5025749;28;19986;-80
2022/10/02 12:29:44;;;;;;;;;;;16.70;99.90;;;;;;5025741;28;20019;-79
2022/10/02 12:32:21;;;;;;;;;;;16.80;99.90;;;;;;5024480;28;20012;-85
2022/10/02 12:34:47;;;;;;;;;;;16.60;99.90;;;;;;5017004;28;20133;-82
2022/10/02 12:37:32;;;;;;;;;;;16.40;99.90;;;;;;5018735;28;19932;-82
2022/10/02 12:40:00;;;;;;;;;;;16.20;99.90;;;;;;5035985;28;20007;-83
2022/10/02 12:42:41;;;;;;;;;;;16.10;99.90;;;;;;5011279;28;20024;-78
2022/10/02 12:45:16;;;;;;;;;;;16.10;99.90;;;;;;5019162;28;19988;-81
2022/10/02 12:47:59;;;;;;;;;;;16.20;99.90;;;;;;5042476;28;19925;-84
2022/10/02 12:50:26;;;;;;;;;;;16.40;99.90;;;;;;5021119;28;20016;-78
2022/10/02 12:53:08;;;;;;;;;;;16.50;99.90;;;;;;5041295;28;19925;-77
2022/10/02 12:55:37;;;;;;;;;;;16.60;99.90;;;;;;5003369;28;20359;-77
2022/10/02 12:58:22;;;;;;;;;;;16.60;99.90;;;;;;5018783;28;19925;-80
2022/10/02 13:01:06;;;;;;;;;;;16.50;99.90;;;;;;5036359;28;19934;-77
2022/10/02 13:03:35;;;;;;;;;;;16.50;99.90;;;;;;5038279;28;19983;-78
2022/10/02 13:06:02;;;;;;;;;;;16.50;99.90;;;;;;4999237;28;19929;-80
2022/10/02 13:08:41;;;;;;;;;;;16.50;99.90;;;;;;5005486;28;20628;-78
2022/10/02 13:11:13;;;;;;;;;;;16.50;99.90;;;;;;5010460;28;19931;-82
2022/10/02 13:13:58;;;;;;;;;;;16.50;99.90;;;;;;5043715;28;20549;-83
2022/10/02 13:16:30;;;;;;;;;;;16.50;99.90;;;;;;5003303;28;19921;-82
2022/10/02 13:19:15;;;;;;;;;;;16.60;99.90;;;;;;4999998;28;20287;-81
2022/10/02 13:22:01;;;;;;;;;;;16.60;99.90;;;;;;5015347;28;19976;-79
2022/10/02 13:24:32;;;;;;;;;;;16.80;99.90;;;;;;4984487;28;19941;-78
2022/10/02 13:27:09;;;;;;;;;;;16.80;99.90;;;;;;5018759;28;19967;-82
2022/10/02 13:29:58;;;;;;;;;;;16.80;99.90;;;;;;5019410;28;19920;-81
2022/10/02 13:32:24;;;;;;;;;;;16.70;99.90;;;;;;5013151;28;20445;-79
2022/10/02 13:34:50;;;;;;;;;;;16.60;99.90;;;;;;5007633;28;19928;-87
2022/10/02 13:37:25;;;;;;;;;;;16.50;99.90;;;;;;5022059;28;19928;-81
2022/10/02 13:39:57;;;;;;;;;;;16.50;99.90;;;;;;4992675;28;19925;-81
2022/10/02 13:42:35;;;;;;;;;;;16.50;99.90;;;;;;5016658;28;19931;-85
2022/10/02 13:45:09;;;;;;;;;;;16.50;99.90;;;;;;4996684;28;19929;-82
2022/10/02 13:47:38;;;;;;;;;;;16.50;99.90;;;;;;5019242;28;20025;-86
2022/10/02 13:50:31;;;;;;;;;;;16.30;99.90;;;;;;5022295;28;19956;-83
2022/10/02 13:53:18;;;;;;;;;;;16.10;99.90;;;;;;5011280;28;19925;-89
2022/10/02 13:55:46;;;;;;;;;;;15.90;99.90;;;;;;5011553;28;19926;-79
2022/10/02 13:58:28;;;;;;;;;;;15.80;99.90;;;;;;5022354;28;19979;-83
2022/10/02 14:01:01;;;;;;;;;;;15.80;99.90;;;;;;5026077;28;20016;-79
2022/10/02 14:03:30;;;;;;;;;;;15.80;99.90;;;;;;5013077;28;20413;-79
2022/10/02 14:06:04;;;;;;;;;;;15.80;99.90;;;;;;4994011;28;19936;-80
2022/10/02 14:08:30;;;;;;;;;;;15.70;99.90;;;;;;4996664;28;19929;-79
2022/10/02 14:11:05;;;;;;;;;;;15.70;99.90;;;;;;5035433;28;20002;-79
2022/10/02 14:13:41;;;;;;;;;;;15.70;99.90;;;;;;4996387;28;19975;-79
2022/10/02 14:16:18;;;;;;;;;;;15.60;99.90;;;;;;5017362;28;19932;-77
2022/10/02 14:19:03;;;;;;;;;;;15.60;99.90;;;;;;5022993;28;19936;-80
2022/10/02 14:21:54;;;;;;;;;;;15.50;99.90;;;;;;5014867;28;20630;-81
2022/10/02 14:24:21;;;;;;;;;;;15.40;99.90;;;;;;5013683;28;19972;-83
2022/10/02 14:27:04;;;;;;;;;;;15.40;99.90;;;;;;5012737;28;19931;-78
2022/10/02 14:29:46;;;;;;;;;;;15.30;99.90;;;;;;5015830;28;19924;-80
2022/10/02 14:32:17;;;;;;;;;;;15.20;99.90;;;;;;5014935;28;19932;-78
2022/10/02 14:34:55;;;;;;;;;;;15.20;99.90;;;;;;5018018;28;19939;-83
2022/10/02 14:37:42;;;;;;;;;;;15.20;99.90;;;;;;5010538;28;19929;-78
2022/10/02 14:40:17;;;;;;;;;;;15.30;99.90;;;;;;5017348;28;19929;-81
2022/10/02 14:42:53;;;;;;;;;;;15.30;99.90;;;;;;5012077;28;19987;-82
2022/10/02 14:45:25;;;;;;;;;;;15.30;99.90;;;;;;5017040;28;19936;-80
2022/10/02 14:48:14;;;;;;;;;;;15.30;99.90;;;;;;5014377;28;20536;-79
2022/10/02 14:50:52;;;;;;;;;;;15.30;99.90;;;;;;5014039;28;19935;-78
2022/10/02 14:53:18;;;;;;;;;;;15.20;99.90;;;;;;5020960;28;19929;-80
2022/10/02 14:56:03;;;;;;;;;;;15.20;99.90;;;;;;5027506;28;19975;-83
2022/10/02 14:58:34;;;;;;;;;;;15.10;99.90;;;;;;5023195;28;19951;-79
2022/10/02 15:01:18;;;;;;;;;;;15.10;99.90;;;;;;5023671;28;19932;-83
2022/10/02 15:03:47;;;;;;;;;;;15.00;99.90;;;;;;5014106;28;19925;-81
2022/10/02 15:06:20;;;;;;;;;;;15.00;99.90;;;;;;5023705;28;19936;-79
2022/10/02 15:08:49;;;;;;;;;;;15.00;99.90;;;;;;5012306;28;19929;-79
2022/10/02 15:11:30;;;;;;;;;;;15.50;99.90;;;;;;5003194;28;19925;-86
2022/10/02 15:14:16;;;;;;;;;;;14.80;99.90;;;;;;5004487;28;19978;-85